Time,TemperatureF,DewpointF,PressureIn,WindDirection,WindDirectionDegrees,WindSpeedMPH,WindSpeedGustMPH,Humidity,HourlyPrecipIn,Conditions,Clouds,dailyrainin,SoftwareType,DateUTC
2013-01-15 00:02:00,44.2,33.6,30.14,NE,41,2.0,10.0,66,0.00,,OVC026,0.00,VWS V14.01,2013-01-15 06:02:00,
2013-01-15 00:07:00,44.1,33.5,30.14,North,9,3.0,6.0,66,0.00,,OVC026,0.00,VWS V14.01,2013-01-15 06:07:00,
2013-01-15 00:12:00,43.9,33.7,30.14,NNE,27,4.0,9.0,67,0.00,,OVC026,0.00,VWS V14.01,2013-01-15 06:12:00,
2013-01-15 00:17:00,43.8,33.6,30.14,NNW,340,4.0,6.0,67,0.00,,OVC026,0.00,VWS V14.01,2013-01-15 06:17:00,
2013-01-15 00:22:00,43.8,33.6,30.14,NE,36,7.0,7.0,67,0.00,,OVC026,0.00,VWS V14.01,2013-01-15 06:22:00,
2013-01-15 00:27:00,43.8,33.6,30.14,NNW,346,0.0,7.0,67,0.00,,OVC026,0.00,VWS V14.01,2013-01-15 06:27:00,
2013-01-15 00:32:00,43.8,33.9,30.14,North,5,3.0,8.0,68,0.00,,OVC026,0.00,VWS V14.01,2013-01-15 06:32:00,
2013-01-15 00:37:00,43.5,34.0,30.14,NNE,16,6.0,7.0,69,0.00,,OVC026,0.00,VWS V14.01,2013-01-15 06:37:00,
2013-01-15 00:42:00,43.3,34.2,30.14,North,355,4.0,7.0,70,0.00,,OVC026,0.00,VWS V14.01,2013-01-15 06:42:00,
2013-01-15 00:47:00,43.2,34.1,30.14,NE,47,1.0,9.0,70,0.00,,OVC026,0.00,VWS V14.01,2013-01-15 06:47:00,
2013-01-15 00:52:00,43.1,34.3,30.14,North,9,1.0,9.0,71,0.00,,OVC026,0.00,VWS V14.01,2013-01-15 06:52:00,
2013-01-15 00:57:00,42.9,34.5,30.14,NNW,346,5.0,6.0,72,0.00,,OVC024,0.00,VWS V14.01,2013-01-15 06:57:00,
2013-01-15 01:02:00,42.9,34.5,30.14,NNE,15,2.0,6.0,72,0.00,,OVC024,0.00,VWS V14.01,2013-01-15 07:02:00,
2013-01-15 01:07:00,42.8,34.4,30.14,NNE,30,0.0,8.0,72,0.00,,OVC024,0.00,VWS V14.01,2013-01-15 07:07:00,
2013-01-15 01:12:00,42.8,34.4,30.14,North,9,2.0,8.0,72,0.00,,OVC024,0.00,VWS V14.01,2013-01-15 07:12:00,
2013-01-15 01:17:00,42.6,34.2,30.14,NW,325,10.0,13.0,72,0.00,,OVC024,0.00,VWS V14.01,2013-01-15 07:17:00,
2013-01-15 01:22:00,42.2,34.5,30.14,NE,34,5.0,13.0,74,0.00,,OVC024,0.00,VWS V14.01,2013-01-15 07:22:00,
2013-01-15 01:27:00,41.9,34.2,30.14,NW,311,4.0,7.0,74,0.00,,OVC024,0.00,VWS V14.01,2013-01-15 07:27:00,
2013-01-15 01:32:00,41.6,34.6,30.15,NNW,332,3.0,10.0,76,0.00,,OVC024,0.00,VWS V14.01,2013-01-15 07:32:00,
2013-01-15 01:37:00,41.5,35.2,30.15,North,355,9.0,11.0,78,0.00,,OVC024,0.00,VWS V14.01,2013-01-15 07:37:00,
2013-01-15 01:42:00,41.1,35.1,30.15,North,355,5.0,11.0,79,0.00,,OVC024,0.00,VWS V14.01,2013-01-15 07:42:00,
2013-01-15 01:47:00,40.8,35.4,30.15,NW,325,3.0,12.0,81,0.00,,OVC024,0.00,VWS V14.01,2013-01-15 07:47:00,
2013-01-15 01:52:00,40.3,35.2,30.15,North,355,7.0,12.0,82,0.00,,OVC024,0.00,VWS V14.01,2013-01-15 07:52:00,
2013-01-15 01:57:00,40.2,35.5,30.15,NNE,28,4.0,9.0,83,0.00,,,0.00,VWS V14.01,2013-01-15 07:57:00,
2013-01-15 02:02:00,39.9,35.8,30.15,NNW,336,9.0,10.0,85,0.00,,,0.00,VWS V14.01,2013-01-15 08:02:00,
2013-01-15 02:07:00,39.9,36.1,30.15,North,349,4.0,7.0,86,0.00,,,0.00,VWS V14.01,2013-01-15 08:07:00,
2013-01-15 02:12:00,39.6,36.1,30.15,North,355,7.0,9.0,87,0.00,,,0.00,VWS V14.01,2013-01-15 08:12:00,
2013-01-15 02:17:00,39.5,36.0,30.15,NNW,338,2.0,7.0,87,0.00,,,0.00,VWS V14.01,2013-01-15 08:17:00,
2013-01-15 02:22:00,39.2,36.0,30.15,North,349,6.0,12.0,88,0.00,,,0.00,VWS V14.01,2013-01-15 08:22:00,
2013-01-15 02:27:00,39.2,36.0,30.15,NNW,331,6.0,9.0,88,0.00,,,0.00,VWS V14.01,2013-01-15 08:27:00,
2013-01-15 02:32:00,39.1,36.1,30.15,NNE,24,9.0,10.0,89,0.00,,-RA,0.00,VWS V14.01,2013-01-15 08:32:00,
2013-01-15 02:37:00,38.9,35.9,30.15,North,355,6.0,11.0,89,0.00,,-RA,0.00,VWS V14.01,2013-01-15 08:37:00,
2013-01-15 02:42:00,38.9,36.2,30.15,NNW,346,6.0,11.0,90,0.00,,-RA,0.00,VWS V14.01,2013-01-15 08:42:00,
2013-01-15 02:47:00,38.9,36.2,30.15,NW,320,6.0,11.0,90,0.00,,-RA,0.00,VWS V14.01,2013-01-15 08:47:00,
2013-01-15 02:52:00,38.6,36.2,30.15,NW,310,9.0,13.0,91,0.00,,-RA,0.00,VWS V14.01,2013-01-15 08:52:00,
2013-01-15 02:57:00,38.6,36.2,30.15,NW,307,10.0,10.0,91,0.00,,-RA,0.00,VWS V14.01,2013-01-15 08:57:00,
2013-01-15 03:02:00,38.8,36.4,30.15,NNW,329,3.0,10.0,91,0.00,,-RA,0.00,VWS V14.01,2013-01-15 09:02:00,
2013-01-15 03:07:00,38.8,36.7,30.15,NW,321,5.0,7.0,92,0.00,,-RA,0.00,VWS V14.01,2013-01-15 09:07:00,
2013-01-15 03:12:00,38.6,36.5,30.15,North,360,7.0,11.0,92,0.00,,-RA,0.00,VWS V14.01,2013-01-15 09:12:00,
2013-01-15 03:17:00,38.6,36.5,30.15,NNW,338,5.0,12.0,92,0.00,,-RA,0.00,VWS V14.01,2013-01-15 09:17:00,
2013-01-15 03:22:00,38.6,36.5,30.15,NNW,344,5.0,12.0,92,0.00,,-RA,0.00,VWS V14.01,2013-01-15 09:22:00,
2013-01-15 03:27:00,38.6,36.5,30.15,NW,321,7.0,8.0,92,0.00,,-RA,0.00,VWS V14.01,2013-01-15 09:27:00,
2013-01-15 03:32:00,38.5,36.4,30.15,NNW,348,4.0,14.0,92,0.00,,-RA,0.00,VWS V14.01,2013-01-15 09:32:00,
2013-01-15 03:37:00,38.5,36.4,30.14,NNW,332,2.0,9.0,92,0.00,,-RA,0.00,VWS V14.01,2013-01-15 09:37:00,
2013-01-15 03:42:00,38.6,36.5,30.14,NNW,329,5.0,12.0,92,0.00,,-RA,0.00,VWS V14.01,2013-01-15 09:42:00,
2013-01-15 03:47:00,38.5,36.4,30.14,North,355,5.0,10.0,92,0.00,,-RA,0.00,VWS V14.01,2013-01-15 09:47:00,
2013-01-15 03:52:00,38.3,36.2,30.14,NNW,342,6.0,12.0,92,0.00,,-RA,0.00,VWS V14.01,2013-01-15 09:52:00,
2013-01-15 03:57:00,38.3,36.2,30.14,North,355,7.0,13.0,92,0.00,,-RA,0.00,VWS V14.01,2013-01-15 09:57:00,
2013-01-15 04:02:00,38.3,36.2,30.14,NNW,329,6.0,13.0,92,0.00,,-RA,0.00,VWS V14.01,2013-01-15 10:02:00,
2013-01-15 04:07:00,38.0,35.9,30.14,NNW,348,8.0,12.0,92,0.00,,-RA,0.00,VWS V14.01,2013-01-15 10:07:00,
2013-01-15 04:12:00,38.0,35.9,30.14,NNW,346,12.0,12.0,92,0.00,,-RA,0.00,VWS V14.01,2013-01-15 10:12:00,
2013-01-15 04:17:00,37.9,35.8,30.14,NNW,348,7.0,14.0,92,0.00,,-RA,0.00,VWS V14.01,2013-01-15 10:17:00,
2013-01-15 04:22:00,37.8,35.7,30.14,NW,319,6.0,14.0,92,0.00,,-RA,0.00,VWS V14.01,2013-01-15 10:22:00,
2013-01-15 04:27:00,37.9,35.8,30.14,NW,320,5.0,10.0,92,0.00,,-RA,0.00,VWS V14.01,2013-01-15 10:27:00,
2013-01-15 04:32:00,37.9,35.8,30.14,NW,316,7.0,10.0,92,0.00,,-RA,0.00,VWS V14.01,2013-01-15 10:32:00,
2013-01-15 04:37:00,37.9,36.1,30.14,NNW,348,9.0,10.0,93,0.00,,-RA,0.00,VWS V14.01,2013-01-15 10:37:00,
2013-01-15 04:42:00,38.0,36.2,30.14,NNW,340,3.0,10.0,93,0.00,,-RA,0.00,VWS V14.01,2013-01-15 10:42:00,
2013-01-15 04:47:00,38.0,36.2,30.14,NNW,338,3.0,7.0,93,0.00,,-RA,0.00,VWS V14.01,2013-01-15 10:47:00,
2013-01-15 04:52:00,37.9,36.1,30.14,NNW,345,6.0,12.0,93,0.00,,-RA,0.00,VWS V14.01,2013-01-15 10:52:00,
2013-01-15 04:57:00,37.9,36.1,30.14,NNW,333,3.0,13.0,93,0.00,,,0.00,VWS V14.01,2013-01-15 10:57:00,
2013-01-15 05:02:00,37.8,35.7,30.14,NNW,342,9.0,16.0,92,0.00,,,0.00,VWS V14.01,2013-01-15 11:02:00,
2013-01-15 05:07:00,37.9,36.1,30.15,NNW,348,9.0,9.0,93,0.00,,,0.00,VWS V14.01,2013-01-15 11:07:00,
2013-01-15 05:12:00,37.6,35.5,30.15,North,350,9.0,14.0,92,0.00,,,0.00,VWS V14.01,2013-01-15 11:12:00,
2013-01-15 05:17:00,37.5,35.4,30.15,North,355,10.0,12.0,92,0.00,,,0.00,VWS V14.01,2013-01-15 11:17:00,
2013-01-15 05:22:00,37.5,35.4,30.15,North,5,6.0,15.0,92,0.00,,,0.00,VWS V14.01,2013-01-15 11:22:00,
2013-01-15 05:27:00,37.5,35.4,30.15,NNW,340,6.0,11.0,92,0.00,,,0.00,VWS V14.01,2013-01-15 11:27:00,
2013-01-15 05:32:00,37.5,35.4,30.15,NNW,337,4.0,12.0,92,0.00,,,0.00,VWS V14.01,2013-01-15 11:32:00,
2013-01-15 05:37:00,37.5,35.4,30.15,North,5,6.0,11.0,92,0.00,,-RA,0.00,VWS V14.01,2013-01-15 11:37:00,
2013-01-15 05:42:00,37.6,35.5,30.15,North,5,7.0,11.0,92,0.00,,-RA,0.00,VWS V14.01,2013-01-15 11:42:00,
2013-01-15 05:47:00,37.6,35.5,30.15,NNE,21,7.0,8.0,92,0.00,,-RA,0.00,VWS V14.01,2013-01-15 11:47:00,
2013-01-15 05:52:00,37.5,35.4,30.15,NNW,332,5.0,10.0,92,0.00,,-RA,0.00,VWS V14.01,2013-01-15 11:52:00,
2013-01-15 05:57:00,37.5,35.4,30.15,NNE,15,4.0,8.0,92,0.00,,,0.00,VWS V14.01,2013-01-15 11:57:00,
2013-01-15 06:02:00,37.3,35.2,30.15,NE,46,7.0,10.0,92,0.00,,,0.00,VWS V14.01,2013-01-15 12:02:00,
2013-01-15 06:07:00,37.2,35.1,30.15,North,349,4.0,11.0,92,0.00,,,0.00,VWS V14.01,2013-01-15 12:07:00,
2013-01-15 06:12:00,37.2,35.1,30.15,North,5,4.0,11.0,92,0.00,,,0.00,VWS V14.01,2013-01-15 12:12:00,
2013-01-15 06:17:00,37.3,35.5,30.15,NNE,33,2.0,10.0,93,0.00,,,0.00,VWS V14.01,2013-01-15 12:17:00,
2013-01-15 06:22:00,37.2,35.1,30.15,North,11,10.0,12.0,92,0.00,,,0.00,VWS V14.01,2013-01-15 12:22:00,
2013-01-15 06:27:00,37.2,35.1,30.15,NNW,340,5.0,16.0,92,0.00,,,0.00,VWS V14.01,2013-01-15 12:27:00,
2013-01-15 06:32:00,37.2,35.1,30.15,NW,323,4.0,16.0,92,0.00,,,0.00,VWS V14.01,2013-01-15 12:32:00,
2013-01-15 06:37:00,37.3,35.2,30.15,NNE,16,12.0,13.0,92,0.00,,,0.00,VWS V14.01,2013-01-15 12:37:00,
2013-01-15 06:42:00,37.2,35.1,30.15,NNW,331,9.0,13.0,92,0.00,,,0.00,VWS V14.01,2013-01-15 12:42:00,
2013-01-15 06:47:00,37.2,35.1,30.15,NNW,333,9.0,14.0,92,0.00,,,0.00,VWS V14.01,2013-01-15 12:47:00,
2013-01-15 06:52:00,37.0,34.9,30.16,NNE,28,6.0,14.0,92,0.00,,,0.00,VWS V14.01,2013-01-15 12:52:00,
2013-01-15 06:57:00,37.2,35.1,30.16,North,349,10.0,12.0,92,0.00,,OVC011,0.00,VWS V14.01,2013-01-15 12:57:00,
2013-01-15 07:02:00,37.2,35.1,30.16,NNW,331,7.0,12.0,92,0.00,,OVC011,0.00,VWS V14.01,2013-01-15 13:02:00,
2013-01-15 07:07:00,37.2,35.1,30.16,North,355,6.0,14.0,92,0.00,,OVC011,0.00,VWS V14.01,2013-01-15 13:07:00,
2013-01-15 07:12:00,37.2,35.1,30.16,NW,323,3.0,14.0,92,0.00,,OVC011,0.00,VWS V14.01,2013-01-15 13:12:00,
2013-01-15 07:17:00,37.3,34.9,30.16,NNW,344,4.0,9.0,91,0.00,,OVC011,0.00,VWS V14.01,2013-01-15 13:17:00,
2013-01-15 07:22:00,37.3,34.9,30.16,NNW,336,4.0,9.0,91,0.00,,OVC011,0.00,VWS V14.01,2013-01-15 13:22:00,
2013-01-15 07:27:00,37.2,34.8,30.16,North,5,7.0,12.0,91,0.00,,OVC011,0.00,VWS V14.01,2013-01-15 13:27:00,
2013-01-15 07:32:00,37.3,34.9,30.16,North,5,6.0,13.0,91,0.00,,OVC011,0.00,VWS V14.01,2013-01-15 13:32:00,
2013-01-15 07:37:00,37.3,34.9,30.16,NNE,24,8.0,9.0,91,0.00,,OVC011,0.00,VWS V14.01,2013-01-15 13:37:00,
2013-01-15 07:42:00,37.3,34.6,30.16,NW,317,4.0,12.0,90,0.00,,OVC011,0.00,VWS V14.01,2013-01-15 13:42:00,
2013-01-15 07:47:00,37.3,34.6,30.16,NW,318,6.0,12.0,90,0.00,,OVC011,0.00,VWS V14.01,2013-01-15 13:47:00,
2013-01-15 07:52:00,37.6,34.9,30.17,NNE,23,9.0,12.0,90,0.00,,OVC011,0.00,VWS V14.01,2013-01-15 13:52:00,
2013-01-15 07:57:00,37.5,34.8,30.17,NE,42,10.0,11.0,90,0.00,,OVC013,0.00,VWS V14.01,2013-01-15 13:57:00,
2013-01-15 08:02:00,37.5,34.8,30.17,NNE,21,6.0,11.0,90,0.00,,OVC013,0.00,VWS V14.01,2013-01-15 14:02:00,
2013-01-15 08:07:00,37.6,34.7,30.18,NNW,347,3.0,10.0,89,0.00,,OVC013,0.00,VWS V14.01,2013-01-15 14:07:00,
2013-01-15 08:12:00,37.5,34.6,30.18,NNW,345,3.0,10.0,89,0.00,,OVC013,0.00,VWS V14.01,2013-01-15 14:12:00,
2013-01-15 08:17:00,37.6,34.7,30.18,North,5,2.0,7.0,89,0.00,,OVC013,0.00,VWS V14.01,2013-01-15 14:17:00,
2013-01-15 08:22:00,37.6,34.7,30.19,NNE,13,6.0,11.0,89,0.00,,OVC013,0.00,VWS V14.01,2013-01-15 14:22:00,
2013-01-15 08:27:00,37.8,34.9,30.19,NNW,344,6.0,10.0,89,0.00,,OVC013,0.00,VWS V14.01,2013-01-15 14:27:00,
2013-01-15 08:32:00,37.8,34.9,30.19,NNE,16,4.0,11.0,89,0.00,,OVC013,0.00,VWS V14.01,2013-01-15 14:32:00,
2013-01-15 08:37:00,37.8,34.9,30.19,NNE,19,6.0,10.0,89,0.00,,OVC013,0.00,VWS V14.01,2013-01-15 14:37:00,
2013-01-15 08:42:00,37.8,34.9,30.19,NNW,340,9.0,10.0,89,0.00,,OVC013,0.00,VWS V14.01,2013-01-15 14:42:00,
2013-01-15 08:47:00,37.8,34.9,30.19,NNW,342,4.0,11.0,89,0.00,,OVC011,0.00,VWS V14.01,2013-01-15 14:47:00,
2013-01-15 08:52:00,38.0,35.0,30.19,North,10,5.0,11.0,89,0.00,,OVC011,0.00,VWS V14.01,2013-01-15 14:52:00,
2013-01-15 08:57:00,37.9,35.0,30.19,NW,308,8.0,11.0,89,0.00,,OVC011,0.00,VWS V14.01,2013-01-15 14:57:00,
2013-01-15 09:02:00,37.9,34.7,30.19,North,355,4.0,13.0,88,0.00,,OVC011,0.00,VWS V14.01,2013-01-15 15:02:00,
2013-01-15 09:07:00,37.9,34.4,30.19,NW,315,7.0,13.0,87,0.00,,OVC011,0.00,VWS V14.01,2013-01-15 15:07:00,
2013-01-15 09:12:00,38.0,34.5,30.19,NNW,333,13.0,15.0,87,0.00,,OVC011,0.00,VWS V14.01,2013-01-15 15:12:00,
2013-01-15 09:17:00,38.0,34.2,30.19,NW,318,7.0,14.0,86,0.00,,OVC011,0.00,VWS V14.01,2013-01-15 15:17:00,
2013-01-15 09:22:00,38.0,34.2,30.19,WNW,298,4.0,14.0,86,0.00,,OVC011,0.00,VWS V14.01,2013-01-15 15:22:00,
2013-01-15 09:27:00,38.0,34.2,30.19,North,355,5.0,12.0,86,0.00,,OVC011,0.00,VWS V14.01,2013-01-15 15:27:00,
2013-01-15 09:32:00,38.0,33.9,30.19,NNE,27,11.0,15.0,85,0.00,,OVC011,0.00,VWS V14.01,2013-01-15 15:32:00,
2013-01-15 09:37:00,38.2,34.1,30.20,WNW,301,13.0,13.0,85,0.00,,OVC011,0.00,VWS V14.01,2013-01-15 15:37:00,
2013-01-15 09:41:00,38.2,33.8,30.20,NW,321,7.0,13.0,84,0.00,,OVC011,0.00,VWS V14.01,2013-01-15 15:41:00,
2013-01-15 09:46:00,37.9,33.8,30.20,NNW,331,12.0,15.0,85,0.00,,OVC011,0.00,VWS V14.01,2013-01-15 15:46:00,
2013-01-15 09:51:00,37.9,33.8,30.20,NNW,340,7.0,15.0,85,0.00,,OVC009,0.00,VWS V14.01,2013-01-15 15:51:00,
2013-01-15 09:56:00,37.8,33.7,30.20,NW,312,12.0,15.0,85,0.00,,OVC009,0.00,VWS V14.01,2013-01-15 15:56:00,
2013-01-15 10:01:00,37.8,33.7,30.20,NW,324,10.0,15.0,85,0.00,,OVC009,0.00,VWS V14.01,2013-01-15 16:01:00,
2013-01-15 10:06:00,37.6,33.8,30.20,NNW,347,9.0,13.0,86,0.00,,OVC009,0.00,VWS V14.01,2013-01-15 16:06:00,
2013-01-15 10:11:00,37.8,34.0,30.20,North,355,7.0,13.0,86,0.00,,OVC009,0.00,VWS V14.01,2013-01-15 16:11:00,
2013-01-15 10:16:00,37.9,33.8,30.20,North,355,10.0,12.0,85,0.00,,OVC009,0.00,VWS V14.01,2013-01-15 16:16:00,
2013-01-15 10:21:00,37.8,33.7,30.20,NW,321,10.0,14.0,85,0.00,,OVC009,0.00,VWS V14.01,2013-01-15 16:21:00,
2013-01-15 10:26:00,37.6,33.5,30.20,NNW,338,6.0,13.0,85,0.00,,OVC009,0.00,VWS V14.01,2013-01-15 16:26:00,
2013-01-15 10:31:00,37.5,33.1,30.20,NW,321,9.0,15.0,84,0.00,,OVC009,0.00,VWS V14.01,2013-01-15 16:31:00,
2013-01-15 10:36:00,37.6,33.2,30.19,NNW,331,5.0,12.0,84,0.00,,OVC009,0.00,VWS V14.01,2013-01-15 16:36:00,
2013-01-15 10:41:00,37.6,33.2,30.19,NW,318,7.0,16.0,84,0.00,,OVC009,0.00,VWS V14.01,2013-01-15 16:41:00,
2013-01-15 10:46:00,37.5,32.8,30.19,NW,313,10.0,14.0,83,0.00,,OVC009,0.00,VWS V14.01,2013-01-15 16:46:00,
2013-01-15 10:51:00,37.6,32.9,30.19,NNW,340,12.0,14.0,83,0.00,,OVC009,0.00,VWS V14.01,2013-01-15 16:51:00,
2013-01-15 10:56:00,37.5,32.8,30.19,WNW,297,8.0,17.0,83,0.00,,OVC009,0.00,VWS V14.01,2013-01-15 16:56:00,
2013-01-15 11:01:00,37.6,32.9,30.19,NW,321,10.0,17.0,83,0.00,,OVC009,0.00,VWS V14.01,2013-01-15 17:01:00,
2013-01-15 11:06:00,37.6,32.9,30.19,NNE,24,7.0,12.0,83,0.00,,OVC011,0.00,VWS V14.01,2013-01-15 17:06:00,
2013-01-15 11:11:00,37.6,32.9,30.19,North,355,12.0,14.0,83,0.00,,OVC011,0.00,VWS V14.01,2013-01-15 17:11:00,
2013-01-15 11:16:00,37.8,32.8,30.19,North,360,7.0,14.0,82,0.00,,OVC011,0.00,VWS V14.01,2013-01-15 17:16:00,
2013-01-15 11:21:00,37.8,32.8,30.18,NNW,334,4.0,16.0,82,0.00,,OVC011,0.00,VWS V14.01,2013-01-15 17:21:00,
2013-01-15 11:26:00,37.9,32.9,30.18,NW,308,10.0,14.0,82,0.00,,OVC011,0.00,VWS V14.01,2013-01-15 17:26:00,
2013-01-15 11:31:00,37.8,32.8,30.18,NW,306,11.0,15.0,82,0.00,,OVC011,0.00,VWS V14.01,2013-01-15 17:31:00,
2013-01-15 11:36:00,37.8,32.8,30.18,NNW,339,3.0,13.0,82,0.00,,OVC011,0.00,VWS V14.01,2013-01-15 17:36:00,
2013-01-15 11:41:00,37.8,32.8,30.18,NNW,348,6.0,15.0,82,0.00,,OVC011,0.00,VWS V14.01,2013-01-15 17:41:00,
2013-01-15 11:46:00,37.8,33.1,30.18,NNW,338,9.0,13.0,83,0.00,,OVC011,0.00,VWS V14.01,2013-01-15 17:46:00,
2013-01-15 11:51:00,37.8,33.1,30.17,North,355,8.0,15.0,83,0.00,,OVC011,0.00,VWS V14.01,2013-01-15 17:51:00,
2013-01-15 11:56:00,37.9,33.2,30.17,NW,317,9.0,15.0,83,0.00,,OVC011,0.00,VWS V14.01,2013-01-15 17:56:00,
2013-01-15 12:01:00,37.9,33.2,30.17,NNW,331,9.0,15.0,83,0.00,,OVC011,0.00,VWS V14.01,2013-01-15 18:01:00,
2013-01-15 12:06:00,37.9,33.2,30.17,NNW,344,10.0,12.0,83,0.00,,OVC011,0.00,VWS V14.01,2013-01-15 18:06:00,
2013-01-15 12:11:00,37.9,33.2,30.17,NNW,328,3.0,14.0,83,0.00,,OVC011,0.00,VWS V14.01,2013-01-15 18:11:00,
2013-01-15 12:16:00,37.8,33.1,30.17,NW,323,9.0,13.0,83,0.00,,OVC011,0.00,VWS V14.01,2013-01-15 18:16:00,
2013-01-15 12:21:00,37.5,32.8,30.17,NW,308,14.0,15.0,83,0.00,,OVC011,0.00,VWS V14.01,2013-01-15 18:21:00,
2013-01-15 12:26:00,37.8,33.4,30.17,NW,312,7.0,12.0,84,0.00,,OVC011,0.00,VWS V14.01,2013-01-15 18:26:00,
2013-01-15 12:31:00,37.6,32.9,30.17,NNW,342,10.0,16.0,83,0.00,,OVC011,0.00,VWS V14.01,2013-01-15 18:31:00,
2013-01-15 12:36:00,37.6,33.2,30.16,NW,316,7.0,15.0,84,0.00,,OVC011,0.00,VWS V14.01,2013-01-15 18:36:00,
2013-01-15 12:41:00,37.8,33.4,30.16,NNW,332,10.0,15.0,84,0.00,,OVC011,0.00,VWS V14.01,2013-01-15 18:41:00,
2013-01-15 12:46:00,37.8,33.1,30.16,North,360,7.0,13.0,83,0.00,,OVC011,0.00,VWS V14.01,2013-01-15 18:46:00,
2013-01-15 12:51:00,37.8,32.8,30.16,NNW,346,6.0,16.0,82,0.00,,OVC011,0.00,VWS V14.01,2013-01-15 18:51:00,
2013-01-15 12:56:00,37.9,32.9,30.16,North,5,8.0,15.0,82,0.00,,OVC011,0.00,VWS V14.01,2013-01-15 18:56:00,
2013-01-15 13:01:00,37.9,32.9,30.16,NNW,331,10.0,15.0,82,0.00,,OVC011,0.00,VWS V14.01,2013-01-15 19:01:00,
2013-01-15 13:06:00,37.9,32.9,30.15,North,355,9.0,13.0,82,0.00,,OVC011,0.00,VWS V14.01,2013-01-15 19:06:00,
2013-01-15 13:11:00,37.9,32.6,30.15,North,360,11.0,16.0,81,0.00,,OVC011,0.00,VWS V14.01,2013-01-15 19:11:00,
2013-01-15 13:16:00,37.9,32.9,30.15,NNW,329,9.0,14.0,82,0.00,,OVC011,0.00,VWS V14.01,2013-01-15 19:16:00,
2013-01-15 13:21:00,38.0,33.0,30.14,NNW,338,2.0,14.0,82,0.00,,OVC011,0.00,VWS V14.01,2013-01-15 19:21:00,
2013-01-15 13:26:00,38.0,33.0,30.14,WNW,299,12.0,13.0,82,0.00,,OVC011,0.00,VWS V14.01,2013-01-15 19:26:00,
2013-01-15 13:31:00,37.9,32.6,30.14,North,355,10.0,19.0,81,0.00,,OVC011,0.00,VWS V14.01,2013-01-15 19:31:00,
2013-01-15 13:36:00,38.0,32.4,30.14,NNW,328,5.0,16.0,80,0.00,,OVC011,0.00,VWS V14.01,2013-01-15 19:36:00,
2013-01-15 13:41:00,38.2,32.6,30.14,NW,319,7.0,17.0,80,0.00,,OVC011,0.00,VWS V14.01,2013-01-15 19:41:00,
2013-01-15 13:46:00,38.3,32.4,30.14,NW,321,10.0,19.0,79,0.00,,OVC011,0.00,VWS V14.01,2013-01-15 19:46:00,
2013-01-15 13:51:00,38.3,32.7,30.15,NNW,332,6.0,19.0,80,0.00,,OVC011,0.00,VWS V14.01,2013-01-15 19:51:00,
2013-01-15 13:56:00,38.3,32.4,30.15,NNW,348,5.0,15.0,79,0.00,,OVC013,0.00,VWS V14.01,2013-01-15 19:56:00,
2013-01-15 14:01:00,38.6,33.0,30.15,NNW,346,13.0,15.0,80,0.00,,OVC013,0.00,VWS V14.01,2013-01-15 20:01:00,
2013-01-15 14:06:00,38.5,32.6,30.14,NW,309,6.0,16.0,79,0.00,,OVC013,0.00,VWS V14.01,2013-01-15 20:06:00,
2013-01-15 14:11:00,38.3,32.4,30.14,North,5,11.0,19.0,79,0.00,,OVC013,0.00,VWS V14.01,2013-01-15 20:11:00,
2013-01-15 14:16:00,38.5,32.9,30.14,North,355,6.0,13.0,80,0.00,,OVC013,0.00,VWS V14.01,2013-01-15 20:16:00,
2013-01-15 14:21:00,38.5,32.6,30.14,NNW,346,10.0,15.0,79,0.00,,OVC013,0.00,VWS V14.01,2013-01-15 20:21:00,
2013-01-15 14:26:00,38.5,32.6,30.14,NW,316,4.0,16.0,79,0.00,,OVC013,0.00,VWS V14.01,2013-01-15 20:26:00,
2013-01-15 14:31:00,38.6,32.7,30.14,North,355,13.0,16.0,79,0.00,,OVC013,0.00,VWS V14.01,2013-01-15 20:31:00,
2013-01-15 14:36:00,38.6,32.7,30.14,North,5,10.0,14.0,79,0.00,,OVC013,0.00,VWS V14.01,2013-01-15 20:36:00,
2013-01-15 14:41:00,38.8,32.9,30.14,NNW,328,7.0,17.0,79,0.00,,OVC013,0.00,VWS V14.01,2013-01-15 20:41:00,
2013-01-15 14:46:00,38.9,32.6,30.14,NW,316,11.0,16.0,78,0.00,,OVC015,0.00,VWS V14.01,2013-01-15 20:46:00,
2013-01-15 14:51:00,38.8,32.5,30.14,North,355,14.0,20.0,78,0.00,,OVC015,0.00,VWS V14.01,2013-01-15 20:51:00,
2013-01-15 14:56:00,38.9,32.6,30.14,NNW,348,11.0,15.0,78,0.00,,OVC015,0.00,VWS V14.01,2013-01-15 20:56:00,
2013-01-15 15:01:00,39.1,32.8,30.14,WNW,302,8.0,15.0,78,0.00,,OVC015,0.00,VWS V14.01,2013-01-15 21:01:00,
2013-01-15 15:06:00,39.2,32.9,30.14,NNW,336,6.0,11.0,78,0.00,,OVC015,0.00,VWS V14.01,2013-01-15 21:06:00,
2013-01-15 15:11:00,39.3,33.0,30.14,NNW,340,12.0,14.0,78,0.00,,OVC015,0.00,VWS V14.01,2013-01-15 21:11:00,
2013-01-15 15:16:00,39.3,33.0,30.14,NNW,346,13.0,13.0,78,0.00,,OVC015,0.00,VWS V14.01,2013-01-15 21:16:00,
2013-01-15 15:21:00,39.3,33.0,30.16,NNW,330,11.0,17.0,78,0.00,,OVC015,0.00,VWS V14.01,2013-01-15 21:21:00,
2013-01-15 15:26:00,39.5,33.2,30.16,NNW,345,9.0,14.0,78,0.00,,OVC015,0.00,VWS V14.01,2013-01-15 21:26:00,
2013-01-15 15:31:00,39.8,33.5,30.16,North,355,13.0,16.0,78,0.00,,OVC015,0.00,VWS V14.01,2013-01-15 21:31:00,
2013-01-15 15:36:00,39.8,33.2,30.15,NW,313,12.0,17.0,77,0.00,,OVC015,0.00,VWS V14.01,2013-01-15 21:36:00,
2013-01-15 15:41:00,39.9,33.3,30.15,NW,316,6.0,17.0,77,0.00,,OVC015,0.00,VWS V14.01,2013-01-15 21:41:00,
2013-01-15 15:46:00,39.9,33.6,30.15,North,5,9.0,17.0,78,0.00,,OVC015,0.00,VWS V14.01,2013-01-15 21:46:00,
2013-01-15 15:51:00,40.1,33.8,30.14,NNW,342,10.0,17.0,78,0.00,,OVC015,0.00,VWS V14.01,2013-01-15 21:51:00,
2013-01-15 15:56:00,40.2,33.9,30.14,NW,321,14.0,15.0,78,0.00,,OVC015,0.00,VWS V14.01,2013-01-15 21:56:00,
2013-01-15 16:01:00,40.3,34.0,30.14,North,10,8.0,16.0,78,0.00,,OVC015,0.00,VWS V14.01,2013-01-15 22:01:00,
2013-01-15 16:06:00,40.2,33.9,30.16,North,5,6.0,15.0,78,0.00,,OVC015,0.00,VWS V14.01,2013-01-15 22:06:00,
2013-01-15 16:11:00,40.2,33.9,30.16,NW,313,5.0,18.0,78,0.00,,OVC015,0.00,VWS V14.01,2013-01-15 22:11:00,
2013-01-15 16:16:00,40.1,33.8,30.16,North,349,7.0,15.0,78,0.00,,OVC015,0.00,VWS V14.01,2013-01-15 22:16:00,
2013-01-15 16:21:00,40.2,33.6,30.15,NNW,334,6.0,15.0,77,0.00,,OVC015,0.00,VWS V14.01,2013-01-15 22:21:00,
2013-01-15 16:26:00,40.3,34.0,30.15,NNW,330,6.0,12.0,78,0.00,,OVC015,0.00,VWS V14.01,2013-01-15 22:26:00,
2013-01-15 16:31:00,40.2,33.9,30.15,North,355,6.0,16.0,78,0.00,,OVC015,0.00,VWS V14.01,2013-01-15 22:31:00,
2013-01-15 16:36:00,40.3,34.0,30.17,North,349,10.0,19.0,78,0.00,,OVC015,0.00,VWS V14.01,2013-01-15 22:36:00,
2013-01-15 16:41:00,40.5,34.2,30.17,NNW,344,7.0,19.0,78,0.00,,OVC015,0.00,VWS V14.01,2013-01-15 22:41:00,
2013-01-15 16:46:00,40.5,33.9,30.17,North,9,12.0,14.0,77,0.00,,OVC015,0.00,VWS V14.01,2013-01-15 22:46:00,
2013-01-15 16:51:00,40.5,33.5,30.17,NW,323,13.0,17.0,76,0.00,,OVC015,0.00,VWS V14.01,2013-01-15 22:51:00,
2013-01-15 16:56:00,40.5,33.5,30.17,NW,315,7.0,16.0,76,0.00,,OVC019,0.00,VWS V14.01,2013-01-15 22:56:00,
2013-01-15 17:01:00,40.3,33.3,30.17,NNW,331,14.0,17.0,76,0.00,,OVC019,0.00,VWS V14.01,2013-01-15 23:01:00,
2013-01-15 17:06:00,40.3,33.0,30.19,WNW,300,17.0,17.0,75,0.00,,OVC019,0.00,VWS V14.01,2013-01-15 23:06:00,
2013-01-15 17:11:00,40.5,33.2,30.19,NW,317,9.0,17.0,75,0.00,,OVC019,0.00,VWS V14.01,2013-01-15 23:11:00,
2013-01-15 17:16:00,40.5,33.2,30.19,NNW,331,11.0,16.0,75,0.00,,OVC019,0.00,VWS V14.01,2013-01-15 23:16:00,
2013-01-15 17:21:00,40.6,33.3,30.19,NW,316,11.0,17.0,75,0.00,,OVC019,0.00,VWS V14.01,2013-01-15 23:21:00,
2013-01-15 17:26:00,40.6,33.3,30.19,WNW,296,13.0,19.0,75,0.00,,OVC019,0.00,VWS V14.01,2013-01-15 23:26:00,
2013-01-15 17:31:00,40.6,33.3,30.19,North,355,10.0,19.0,75,0.00,,OVC019,0.00,VWS V14.01,2013-01-15 23:31:00,
2013-01-15 17:36:00,40.5,33.2,30.20,WNW,298,9.0,14.0,75,0.00,,OVC019,0.00,VWS V14.01,2013-01-15 23:36:00,
2013-01-15 17:41:00,40.5,33.2,30.20,NW,320,11.0,19.0,75,0.00,,OVC019,0.00,VWS V14.01,2013-01-15 23:41:00,
2013-01-15 17:46:00,40.5,33.2,30.20,NW,319,12.0,19.0,75,0.00,,OVC019,0.00,VWS V14.01,2013-01-15 23:46:00,
2013-01-15 17:51:00,40.5,32.9,30.20,WNW,303,11.0,19.0,74,0.00,,OVC019,0.00,VWS V14.01,2013-01-15 23:51:00,
2013-01-15 17:56:00,40.5,32.9,30.20,NW,321,9.0,15.0,74,0.00,,OVC027,0.00,VWS V14.01,2013-01-15 23:56:00,
2013-01-15 18:01:00,40.5,32.9,30.20,NW,320,10.0,16.0,74,0.00,,OVC027,0.00,VWS V14.01,2013-01-16 00:01:00,
2013-01-15 18:06:00,40.5,32.9,30.20,WNW,294,12.0,15.0,74,0.00,,OVC027,0.00,VWS V14.01,2013-01-16 00:06:00,
2013-01-15 18:11:00,40.5,32.9,30.20,NW,325,8.0,15.0,74,0.00,,OVC027,0.00,VWS V14.01,2013-01-16 00:11:00,
2013-01-15 18:16:00,40.6,33.0,30.20,NW,315,7.0,14.0,74,0.00,,OVC027,0.00,VWS V14.01,2013-01-16 00:16:00,
2013-01-15 18:21:00,40.6,33.0,30.21,WNW,301,7.0,14.0,74,0.00,,OVC042,0.00,VWS V14.01,2013-01-16 00:21:00,
2013-01-15 18:26:00,40.6,33.0,30.21,North,355,6.0,12.0,74,0.00,,OVC042,0.00,VWS V14.01,2013-01-16 00:26:00,
2013-01-15 18:31:00,40.6,33.0,30.21,NW,305,11.0,16.0,74,0.00,,OVC042,0.00,VWS V14.01,2013-01-16 00:31:00,
2013-01-15 18:36:00,40.6,33.0,30.21,NW,310,8.0,15.0,74,0.00,,OVC042,0.00,VWS V14.01,2013-01-16 00:36:00,
2013-01-15 18:41:00,40.6,32.6,30.21,NW,314,12.0,17.0,73,0.00,,OVC042,0.00,VWS V14.01,2013-01-16 00:41:00,
2013-01-15 18:46:00,40.6,32.6,30.21,NW,313,6.0,15.0,73,0.00,,OVC042,0.00,VWS V14.01,2013-01-16 00:46:00,
2013-01-15 18:51:00,40.6,32.6,30.22,NW,319,4.0,15.0,73,0.00,,OVC042,0.00,VWS V14.01,2013-01-16 00:51:00,
2013-01-15 18:56:00,40.6,32.3,30.22,North,355,11.0,17.0,72,0.00,,OVC040,0.00,VWS V14.01,2013-01-16 00:56:00,
2013-01-15 19:01:00,40.5,32.2,30.22,NW,325,14.0,17.0,72,0.00,,OVC040,0.00,VWS V14.01,2013-01-16 01:01:00,
2013-01-15 19:06:00,40.5,32.2,30.21,NW,305,9.0,17.0,72,0.00,,OVC040,0.00,VWS V14.01,2013-01-16 01:06:00,
2013-01-15 19:11:00,40.3,31.7,30.21,NNW,336,11.0,18.0,71,0.00,,OVC040,0.00,VWS V14.01,2013-01-16 01:11:00,
2013-01-15 19:16:00,40.3,31.7,30.21,NW,305,10.0,17.0,71,0.00,,OVC040,0.00,VWS V14.01,2013-01-16 01:16:00,
2013-01-15 19:21:00,40.2,31.6,30.20,North,355,9.0,17.0,71,0.00,,OVC040,0.00,VWS V14.01,2013-01-16 01:21:00,
2013-01-15 19:26:00,40.1,31.5,30.20,NW,326,10.0,17.0,71,0.00,,OVC040,0.00,VWS V14.01,2013-01-16 01:26:00,
2013-01-15 19:31:00,40.1,31.5,30.20,North,360,3.0,17.0,71,0.00,,OVC040,0.00,VWS V14.01,2013-01-16 01:31:00,
2013-01-15 19:36:00,39.9,31.3,30.20,NNW,345,4.0,12.0,71,0.00,,OVC040,0.00,VWS V14.01,2013-01-16 01:36:00,
2013-01-15 19:41:00,39.9,30.9,30.20,North,355,10.0,12.0,70,0.00,,OVC040,0.00,VWS V14.01,2013-01-16 01:41:00,
2013-01-15 19:46:00,39.8,30.5,30.20,North,349,5.0,9.0,69,0.00,,OVC040,0.00,VWS V14.01,2013-01-16 01:46:00,
2013-01-15 19:51:00,39.6,30.3,30.22,North,355,3.0,10.0,69,0.00,,OVC040,0.00,VWS V14.01,2013-01-16 01:51:00,
2013-01-15 19:56:00,39.6,30.3,30.22,North,355,7.0,7.0,69,0.00,,SCT046,0.00,VWS V14.01,2013-01-16 01:56:00,
2013-01-15 20:01:00,39.5,30.2,30.22,NNW,332,3.0,11.0,69,0.00,,SCT046,0.00,VWS V14.01,2013-01-16 02:01:00,
2013-01-15 20:06:00,39.5,30.2,30.23,NNW,347,6.0,11.0,69,0.00,,SCT046,0.00,VWS V14.01,2013-01-16 02:06:00,
2013-01-15 20:11:00,39.5,30.2,30.23,NNW,341,9.0,12.0,69,0.00,,SCT046,0.00,VWS V14.01,2013-01-16 02:11:00,
2013-01-15 20:16:00,39.3,29.6,30.23,NW,321,9.0,13.0,68,0.00,,SCT046,0.00,VWS V14.01,2013-01-16 02:16:00,
2013-01-15 20:21:00,39.3,29.6,30.24,North,360,7.0,13.0,68,0.00,,SCT046,0.00,VWS V14.01,2013-01-16 02:21:00,
2013-01-15 20:26:00,39.5,29.8,30.24,NNW,338,9.0,11.0,68,0.00,,SCT046,0.00,VWS V14.01,2013-01-16 02:26:00,
2013-01-15 20:31:00,39.5,29.5,30.24,NW,312,9.0,16.0,67,0.00,,SCT046,0.00,VWS V14.01,2013-01-16 02:31:00,
2013-01-15 20:36:00,39.5,29.5,30.24,NW,306,11.0,11.0,67,0.00,,SCT046,0.00,VWS V14.01,2013-01-16 02:36:00,
2013-01-15 20:41:00,39.3,28.9,30.24,NW,322,8.0,12.0,66,0.00,,SCT046,0.00,VWS V14.01,2013-01-16 02:41:00,
2013-01-15 20:46:00,39.3,28.5,30.24,NNW,332,1.0,10.0,65,0.00,,SCT046,0.00,VWS V14.01,2013-01-16 02:46:00,
2013-01-15 20:51:00,39.3,28.5,30.25,NNW,341,9.0,10.0,65,0.00,,SCT046,0.00,VWS V14.01,2013-01-16 02:51:00,
2013-01-15 20:56:00,39.3,28.2,30.25,North,355,6.0,11.0,64,0.00,,CLR,0.00,VWS V14.01,2013-01-16 02:56:00,
2013-01-15 21:01:00,39.3,27.8,30.25,North,9,7.0,14.0,63,0.00,,CLR,0.00,VWS V14.01,2013-01-16 03:01:00,
2013-01-15 21:06:00,39.3,27.8,30.25,WNW,294,6.0,12.0,63,0.00,,CLR,0.00,VWS V14.01,2013-01-16 03:06:00,
2013-01-15 21:11:00,39.2,27.7,30.25,NW,319,7.0,12.0,63,0.00,,CLR,0.00,VWS V14.01,2013-01-16 03:11:00,
2013-01-15 21:16:00,39.2,27.7,30.25,NW,304,5.0,11.0,63,0.00,,CLR,0.00,VWS V14.01,2013-01-16 03:16:00,
2013-01-15 21:21:00,39.1,27.6,30.25,NW,315,4.0,11.0,63,0.00,,CLR,0.00,VWS V14.01,2013-01-16 03:21:00,
2013-01-15 21:26:00,38.9,27.4,30.25,NNW,334,5.0,11.0,63,0.00,,CLR,0.00,VWS V14.01,2013-01-16 03:26:00,
2013-01-15 21:31:00,38.9,27.4,30.25,NNW,331,5.0,11.0,63,0.00,,CLR,0.00,VWS V14.01,2013-01-16 03:31:00,
2013-01-15 21:36:00,38.9,27.4,30.26,NNW,346,7.0,9.0,63,0.00,,CLR,0.00,VWS V14.01,2013-01-16 03:36:00,
2013-01-15 21:41:00,38.8,27.3,30.26,NNW,329,5.0,10.0,63,0.00,,CLR,0.00,VWS V14.01,2013-01-16 03:41:00,
2013-01-15 21:46:00,38.8,27.3,30.26,NNW,329,3.0,6.0,63,0.00,,CLR,0.00,VWS V14.01,2013-01-16 03:46:00,
2013-01-15 21:51:00,38.6,27.5,30.27,North,355,7.0,8.0,64,0.00,,CLR,0.00,VWS V14.01,2013-01-16 03:51:00,
2013-01-15 21:56:00,38.6,27.5,30.27,NNW,332,5.0,8.0,64,0.00,,CLR,0.00,VWS V14.01,2013-01-16 03:56:00,
2013-01-15 22:01:00,38.6,27.5,30.27,NNW,338,5.0,8.0,64,0.00,,CLR,0.00,VWS V14.01,2013-01-16 04:01:00,
2013-01-15 22:06:00,38.3,27.6,30.27,NW,314,2.0,5.0,65,0.00,,CLR,0.00,VWS V14.01,2013-01-16 04:06:00,
2013-01-15 22:11:00,38.2,27.9,30.27,NW,309,4.0,7.0,66,0.00,,CLR,0.00,VWS V14.01,2013-01-16 04:11:00,
2013-01-15 22:16:00,38.2,27.9,30.27,NW,313,7.0,9.0,66,0.00,,CLR,0.00,VWS V14.01,2013-01-16 04:16:00,
2013-01-15 22:20:00,38.0,27.7,30.27,NW,321,5.0,10.0,66,0.00,,CLR,0.00,VWS V14.01,2013-01-16 04:20:00,
2013-01-15 22:25:00,37.9,27.6,30.27,NNW,336,6.0,12.0,66,0.00,,CLR,0.00,VWS V14.01,2013-01-16 04:25:00,
2013-01-15 22:30:00,37.8,27.8,30.27,NW,325,4.0,12.0,67,0.00,,CLR,0.00,VWS V14.01,2013-01-16 04:30:00,
2013-01-15 22:35:00,37.6,28.0,30.27,NW,323,4.0,7.0,68,0.00,,CLR,0.00,VWS V14.01,2013-01-16 04:35:00,
2013-01-15 22:40:00,37.3,28.1,30.27,NW,311,2.0,7.0,69,0.00,,CLR,0.00,VWS V14.01,2013-01-16 04:40:00,
2013-01-15 22:45:00,37.3,28.1,30.27,NW,312,1.0,4.0,69,0.00,,CLR,0.00,VWS V14.01,2013-01-16 04:45:00,
2013-01-15 22:50:00,37.2,28.0,30.28,NW,312,3.0,4.0,69,0.00,,CLR,0.00,VWS V14.01,2013-01-16 04:50:00,
2013-01-15 22:55:00,37.0,28.1,30.28,NW,311,4.0,6.0,70,0.00,,CLR,0.00,VWS V14.01,2013-01-16 04:55:00,
2013-01-15 23:00:00,37.0,28.1,30.28,NW,309,4.0,6.0,70,0.00,,CLR,0.00,VWS V14.01,2013-01-16 05:00:00,
2013-01-15 23:05:00,36.9,28.0,30.28,NW,313,2.0,6.0,70,0.00,,CLR,0.00,VWS V14.01,2013-01-16 05:05:00,
2013-01-15 23:10:00,36.9,28.0,30.28,NW,313,3.0,10.0,70,0.00,,CLR,0.00,VWS V14.01,2013-01-16 05:10:00,
2013-01-15 23:15:00,36.9,28.0,30.28,WNW,292,6.0,9.0,70,0.00,,CLR,0.00,VWS V14.01,2013-01-16 05:15:00,
2013-01-15 23:20:00,36.8,28.3,30.29,NW,310,4.0,11.0,71,0.00,,CLR,0.00,VWS V14.01,2013-01-16 05:20:00,
2013-01-15 23:25:00,36.6,28.1,30.29,NW,325,2.0,11.0,71,0.00,,CLR,0.00,VWS V14.01,2013-01-16 05:25:00,
2013-01-15 23:30:00,36.6,27.8,30.29,WNW,296,12.0,12.0,70,0.00,,CLR,0.00,VWS V14.01,2013-01-16 05:30:00,
2013-01-15 23:35:00,36.6,27.8,30.28,WNW,298,5.0,10.0,70,0.00,,CLR,0.00,VWS V14.01,2013-01-16 05:35:00,
2013-01-15 23:40:00,36.5,27.7,30.28,NW,316,3.0,12.0,70,0.00,,CLR,0.00,VWS V14.01,2013-01-16 05:40:00,
2013-01-15 23:45:00,36.5,27.3,30.28,West,279,7.0,10.0,69,0.00,,CLR,0.00,VWS V14.01,2013-01-16 05:45:00,
2013-01-15 23:50:00,36.6,27.0,30.29,NW,310,8.0,16.0,68,0.00,,CLR,0.00,VWS V14.01,2013-01-16 05:50:00,
2013-01-15 23:55:00,36.6,26.7,30.29,NW,318,13.0,14.0,67,0.00,,CLR,0.00,VWS V14.01,2013-01-16 05:55:00,